createdAt,value
2018-09-30T00:01:58.229Z,8.60
2018-09-30T00:04:26.897Z,8.60
2018-09-30T00:06:55.424Z,8.50
2018-09-30T00:09:31.054Z,8.50
2018-09-30T00:12:01.692Z,8.50
2018-09-30T00:14:30.373Z,8.40
2018-09-30T00:16:59.492Z,8.50
2018-09-30T00:19:28.401Z,8.40
2018-09-30T00:21:56.933Z,8.40
2018-09-30T00:24:30.869Z,8.40
2018-09-30T00:27:01.036Z,8.30
2018-09-30T00:29:30.530Z,8.40
2018-09-30T00:31:59.872Z,8.40
2018-09-30T00:34:30.238Z,8.40
2018-09-30T00:36:59.977Z,8.40
2018-09-30T00:39:28.966Z,8.40
2018-09-30T00:41:57.656Z,8.40
2018-09-30T00:44:26.302Z,8.40
2018-09-30T00:46:54.841Z,8.40
2018-09-30T00:49:23.360Z,8.30
2018-09-30T00:51:51.845Z,8.30
2018-09-30T00:54:20.320Z,8.20
2018-09-30T00:56:48.859Z,8.20
2018-09-30T00:59:20.405Z,8.30
2018-09-30T01:01:48.986Z,8.30
2018-09-30T01:04:17.945Z,8.30
2018-09-30T01:06:46.429Z,8.20
2018-09-30T01:09:16.017Z,8.20
2018-09-30T01:11:45.174Z,8.10
2018-09-30T01:14:13.843Z,8.00
2018-09-30T01:16:42.413Z,8.00
2018-09-30T01:19:10.992Z,8.00
2018-09-30T01:21:39.457Z,7.90
2018-09-30T01:24:08.054Z,8.00
2018-09-30T01:26:36.481Z,8.00
2018-09-30T01:29:05.030Z,8.00
2018-09-30T01:31:33.584Z,8.00
2018-09-30T01:34:02.310Z,7.90
2018-09-30T01:36:31.103Z,7.80
2018-09-30T01:39:00.241Z,7.90
2018-09-30T01:41:29.035Z,7.90
2018-09-30T01:43:58.000Z,7.90
2018-09-30T01:46:26.736Z,7.90
2018-09-30T01:48:55.580Z,7.90
2018-09-30T01:51:24.253Z,7.80
2018-09-30T01:53:52.875Z,7.80
2018-09-30T01:56:21.385Z,7.80
2018-09-30T01:58:49.896Z,7.80
2018-09-30T02:01:18.341Z,7.80
2018-09-30T02:03:46.867Z,7.90
2018-09-30T02:06:15.368Z,7.80
2018-09-30T02:08:44.101Z,7.80
2018-09-30T02:11:12.558Z,7.80
2018-09-30T02:13:41.156Z,7.80
2018-09-30T02:16:09.720Z,7.70
2018-09-30T02:18:38.142Z,7.70
2018-09-30T02:21:06.784Z,7.60
2018-09-30T02:23:35.493Z,7.70
2018-09-30T02:26:04.248Z,7.80
2018-09-30T02:28:32.708Z,7.70
2018-09-30T02:31:01.256Z,7.70
2018-09-30T02:33:29.812Z,7.70
2018-09-30T02:35:58.429Z,7.60
2018-09-30T02:38:27.131Z,7.60
2018-09-30T02:40:55.692Z,7.50
2018-09-30T02:43:24.174Z,7.50
2018-09-30T02:45:52.603Z,7.50
2018-09-30T02:48:21.054Z,7.50
2018-09-30T02:50:49.675Z,7.40
2018-09-30T02:53:18.084Z,7.30
2018-09-30T02:55:46.559Z,7.40
2018-09-30T02:58:14.995Z,7.30
2018-09-30T03:00:43.647Z,7.30
2018-09-30T03:03:12.107Z,7.40
2018-09-30T03:05:40.633Z,7.40
2018-09-30T03:08:14.328Z,7.40
2018-09-30T03:10:43.302Z,7.40
2018-09-30T03:13:11.906Z,7.40
2018-09-30T03:15:40.493Z,7.30
2018-09-30T03:18:08.954Z,7.30
2018-09-30T03:20:37.616Z,7.30
2018-09-30T03:23:06.142Z,7.30
2018-09-30T03:25:34.598Z,7.40
2018-09-30T03:28:03.114Z,7.30
2018-09-30T03:30:31.666Z,7.30
2018-09-30T03:33:00.277Z,7.10
2018-09-30T03:35:29.069Z,7.20
2018-09-30T03:37:57.686Z,7.10
2018-09-30T03:40:26.297Z,7.00
2018-09-30T03:42:54.798Z,7.00
2018-09-30T03:45:23.340Z,6.90
2018-09-30T03:47:51.764Z,7.00
2018-09-30T03:50:20.293Z,7.00
2018-09-30T03:52:48.793Z,7.10
2018-09-30T03:55:17.285Z,7.00
2018-09-30T03:57:45.776Z,7.00
2018-09-30T04:00:14.264Z,7.00
2018-09-30T04:02:42.735Z,7.00
2018-09-30T04:05:11.241Z,7.00
2018-09-30T04:07:39.786Z,7.00
2018-09-30T04:10:08.392Z,7.00
2018-09-30T04:12:36.849Z,6.90
2018-09-30T04:15:05.297Z,6.80
2018-09-30T04:17:33.777Z,6.80
2018-09-30T04:20:02.409Z,6.80
2018-09-30T04:22:31.147Z,6.80
2018-09-30T04:24:59.776Z,6.80
2018-09-30T04:27:28.341Z,6.80
2018-09-30T04:29:56.983Z,6.70
2018-09-30T04:32:25.878Z,6.80
2018-09-30T04:34:54.419Z,6.80
2018-09-30T04:37:22.964Z,6.80
2018-09-30T04:39:51.405Z,6.70
2018-09-30T04:42:19.953Z,6.70
2018-09-30T04:44:48.467Z,6.70
2018-09-30T04:47:17.021Z,6.70
2018-09-30T04:49:45.509Z,6.80
2018-09-30T04:52:14.057Z,6.80
2018-09-30T04:54:42.565Z,6.80
2018-09-30T04:57:11.081Z,6.70
2018-09-30T04:59:39.737Z,6.70
2018-09-30T05:02:08.336Z,6.70
2018-09-30T05:04:36.847Z,6.50
2018-09-30T05:07:05.708Z,6.60
2018-09-30T05:09:34.263Z,6.40
2018-09-30T05:12:02.865Z,6.50
2018-09-30T05:14:31.392Z,6.50
2018-09-30T05:17:00.092Z,6.50
2018-09-30T05:19:28.825Z,6.40
2018-09-30T05:21:57.436Z,6.40
2018-09-30T05:24:26.135Z,6.40
2018-09-30T05:26:54.647Z,6.40
2018-09-30T05:29:23.061Z,6.30
2018-09-30T05:31:51.622Z,6.40
2018-09-30T05:34:20.122Z,6.40
2018-09-30T05:36:48.645Z,6.50
2018-09-30T05:39:17.181Z,6.50
2018-09-30T05:41:45.668Z,6.50
2018-09-30T05:44:14.125Z,6.40
2018-09-30T05:46:42.615Z,6.30
2018-09-30T05:49:11.077Z,6.30
2018-09-30T05:51:39.589Z,6.40
2018-09-30T05:54:08.173Z,6.50
2018-09-30T05:56:36.698Z,6.40
2018-09-30T05:59:12.280Z,6.40
2018-09-30T06:01:40.851Z,6.40
2018-09-30T06:04:10.859Z,6.40
2018-09-30T06:06:39.692Z,6.40
2018-09-30T06:09:10.930Z,6.40
2018-09-30T06:11:39.765Z,6.40
2018-09-30T06:14:10.971Z,6.50
2018-09-30T06:16:41.643Z,6.50
2018-09-30T06:19:10.319Z,6.50
2018-09-30T06:21:39.564Z,6.50
2018-09-30T06:24:08.603Z,6.50
2018-09-30T06:26:37.104Z,6.60
2018-09-30T06:29:05.554Z,6.60
2018-09-30T06:31:34.175Z,6.80
2018-09-30T06:34:02.637Z,6.90
2018-09-30T06:36:31.152Z,6.90
2018-09-30T06:38:59.711Z,7.00
2018-09-30T06:41:28.361Z,7.00
2018-09-30T06:43:57.208Z,7.10
2018-09-30T06:46:26.280Z,7.10
2018-09-30T06:48:54.784Z,7.20
2018-09-30T06:51:23.296Z,7.20
2018-09-30T06:53:51.862Z,7.30
2018-09-30T06:56:20.391Z,7.40
2018-09-30T06:58:48.942Z,7.50
2018-09-30T07:01:18.824Z,7.60
2018-09-30T07:03:47.671Z,7.70
2018-09-30T07:06:16.327Z,7.70
2018-09-30T07:08:44.911Z,7.90
2018-09-30T07:11:13.537Z,8.00
2018-09-30T07:13:42.937Z,8.10
2018-09-30T07:16:11.489Z,8.30
2018-09-30T07:18:40.080Z,8.40
2018-09-30T07:21:08.617Z,8.50
2018-09-30T07:23:38.783Z,8.70
2018-09-30T07:26:07.632Z,8.80
2018-09-30T07:28:36.313Z,8.80
2018-09-30T07:31:08.905Z,8.90
2018-09-30T07:33:37.548Z,9.00
2018-09-30T07:36:06.057Z,9.10
2018-09-30T07:38:34.948Z,9.30
2018-09-30T07:41:03.511Z,9.30
2018-09-30T07:43:32.201Z,9.40
2018-09-30T07:46:01.036Z,9.50
2018-09-30T07:48:29.895Z,9.70
2018-09-30T07:50:58.472Z,9.80
2018-09-30T07:53:27.622Z,9.80
2018-09-30T07:55:56.643Z,9.90
2018-09-30T07:58:25.962Z,10.00
2018-09-30T08:00:54.665Z,10.00
2018-09-30T08:03:23.278Z,10.20
2018-09-30T08:05:52.084Z,11.00
2018-09-30T08:08:20.620Z,11.50
2018-09-30T08:10:49.274Z,12.20
2018-09-30T08:13:17.848Z,11.70
2018-09-30T08:15:46.762Z,11.50
2018-09-30T08:18:15.326Z,11.30
2018-09-30T08:20:43.860Z,11.30
2018-09-30T08:23:12.354Z,11.20
2018-09-30T08:25:40.855Z,11.20
2018-09-30T08:28:09.521Z,11.20
2018-09-30T08:30:38.129Z,11.30
2018-09-30T08:33:06.637Z,11.30
2018-09-30T08:35:35.189Z,11.30
2018-09-30T08:38:09.057Z,11.40
2018-09-30T08:40:43.018Z,11.40
2018-09-30T08:43:11.764Z,11.50
2018-09-30T08:45:40.677Z,11.50
2018-09-30T08:48:09.305Z,11.60
2018-09-30T08:50:38.831Z,11.60
2018-09-30T08:53:07.499Z,11.70
2018-09-30T08:55:36.540Z,11.70
2018-09-30T08:58:05.138Z,11.80
2018-09-30T09:00:33.867Z,11.80
2018-09-30T09:03:02.920Z,11.90
2018-09-30T09:05:31.618Z,12.00
2018-09-30T09:08:00.759Z,12.10
2018-09-30T09:10:29.653Z,12.10
2018-09-30T09:12:59.203Z,12.20
2018-09-30T09:15:28.507Z,12.20
2018-09-30T09:17:58.194Z,12.20
2018-09-30T09:20:27.125Z,12.30
2018-09-30T09:22:55.878Z,12.40
2018-09-30T09:25:24.994Z,12.40
2018-09-30T09:27:54.707Z,12.60
2018-09-30T09:30:23.477Z,12.60
2018-09-30T09:32:52.124Z,12.70
2018-09-30T09:35:20.909Z,12.80
2018-09-30T09:37:49.604Z,12.80
2018-09-30T09:40:18.378Z,12.90
2018-09-30T09:42:46.892Z,13.10
2018-09-30T09:45:15.661Z,13.10
2018-09-30T09:47:44.253Z,13.20
2018-09-30T09:50:12.921Z,13.20
2018-09-30T09:52:41.586Z,13.30
2018-09-30T09:55:10.221Z,13.30
2018-09-30T09:57:39.026Z,13.40
2018-09-30T10:00:08.554Z,13.60
2018-09-30T10:02:37.183Z,13.60
2018-09-30T10:05:06.174Z,13.70
2018-09-30T10:07:36.435Z,13.80
2018-09-30T10:10:05.090Z,13.90
2018-09-30T10:12:33.707Z,14.00
2018-09-30T10:15:02.302Z,14.10
2018-09-30T10:17:31.113Z,14.20
2018-09-30T10:19:59.899Z,14.40
2018-09-30T10:22:28.695Z,14.70
2018-09-30T10:24:57.545Z,14.70
2018-09-30T10:27:26.297Z,14.70
2018-09-30T10:30:01.750Z,14.60
2018-09-30T10:32:30.337Z,14.50
2018-09-30T10:34:59.145Z,14.60
2018-09-30T10:37:28.274Z,14.70
2018-09-30T10:39:57.046Z,14.80
2018-09-30T10:42:25.680Z,14.70
2018-09-30T10:44:54.454Z,14.70
2018-09-30T10:47:23.048Z,14.70
2018-09-30T10:49:51.640Z,14.70
2018-09-30T10:52:20.206Z,14.80
2018-09-30T10:54:48.827Z,14.80
2018-09-30T10:57:17.329Z,14.80
2018-09-30T10:59:45.883Z,14.80
2018-09-30T11:02:14.613Z,14.90
2018-09-30T11:04:43.221Z,14.90
2018-09-30T11:07:12.435Z,15.00
2018-09-30T11:09:41.084Z,15.00
2018-09-30T11:12:09.702Z,15.10
2018-09-30T11:14:38.383Z,15.10
2018-09-30T11:17:07.381Z,15.10
2018-09-30T11:19:36.006Z,15.20
2018-09-30T11:22:04.635Z,15.20
2018-09-30T11:24:33.232Z,15.20
2018-09-30T11:27:02.120Z,15.20
2018-09-30T11:29:30.748Z,15.20
2018-09-30T11:31:59.549Z,15.20
2018-09-30T11:34:28.310Z,15.20
2018-09-30T11:36:57.099Z,15.30
2018-09-30T11:39:25.924Z,15.30
2018-09-30T11:41:54.465Z,15.30
2018-09-30T11:44:22.989Z,15.40
2018-09-30T11:46:51.634Z,15.40
2018-09-30T11:49:20.285Z,15.40
2018-09-30T11:51:48.884Z,15.40
2018-09-30T11:54:18.635Z,15.50
2018-09-30T11:56:47.217Z,15.50
2018-09-30T11:59:15.863Z,15.50
2018-09-30T12:01:44.484Z,15.50
2018-09-30T12:04:13.107Z,15.50
2018-09-30T12:06:41.727Z,15.60
2018-09-30T12:09:10.757Z,15.60
2018-09-30T12:11:39.343Z,15.60
2018-09-30T12:14:08.299Z,15.60
2018-09-30T12:16:36.885Z,15.60
2018-09-30T12:19:05.565Z,15.70
2018-09-30T12:21:35.133Z,15.70
2018-09-30T12:24:03.751Z,15.80
2018-09-30T12:26:32.456Z,15.80
2018-09-30T12:29:01.109Z,15.80
2018-09-30T12:31:30.002Z,15.90
2018-09-30T12:33:59.890Z,15.90
2018-09-30T12:36:28.622Z,15.90
2018-09-30T12:38:57.439Z,15.90
2018-09-30T12:41:26.086Z,15.90
2018-09-30T12:43:54.563Z,15.90
2018-09-30T12:46:23.311Z,15.90
2018-09-30T12:48:51.821Z,16.00
2018-09-30T12:51:20.416Z,16.00
2018-09-30T12:53:48.914Z,16.10
2018-09-30T12:56:17.459Z,16.10
2018-09-30T12:58:46.236Z,16.20
2018-09-30T13:01:14.784Z,16.20
2018-09-30T13:03:43.341Z,16.20
2018-09-30T13:06:11.924Z,16.20
2018-09-30T13:08:40.380Z,16.30
2018-09-30T13:11:08.850Z,16.30
2018-09-30T13:13:37.419Z,16.30
2018-09-30T13:16:06.037Z,16.40
2018-09-30T13:18:34.588Z,16.40
2018-09-30T13:21:03.770Z,16.50
2018-09-30T13:23:32.344Z,16.50
2018-09-30T13:26:00.871Z,16.50
2018-09-30T13:28:29.596Z,16.50
2018-09-30T13:30:58.247Z,16.50
2018-09-30T13:33:26.951Z,16.60
2018-09-30T13:35:55.674Z,16.60
2018-09-30T13:38:24.236Z,16.60
2018-09-30T13:40:52.851Z,16.60
2018-09-30T13:43:21.329Z,16.60
2018-09-30T13:45:50.228Z,16.60
2018-09-30T13:48:18.777Z,16.60
2018-09-30T13:50:47.239Z,16.70
2018-09-30T13:53:15.778Z,16.60
2018-09-30T13:55:44.271Z,16.70
2018-09-30T13:58:12.936Z,16.70
2018-09-30T14:00:41.434Z,16.70
2018-09-30T14:03:09.940Z,16.70
2018-09-30T14:05:38.430Z,16.70
2018-09-30T14:08:06.989Z,16.70
2018-09-30T14:10:35.500Z,16.70
2018-09-30T14:13:04.276Z,16.70
2018-09-30T14:15:32.895Z,16.70
2018-09-30T14:18:01.839Z,16.70
2018-09-30T14:20:30.749Z,16.70
2018-09-30T14:22:59.359Z,16.70
2018-09-30T14:25:28.981Z,16.70
2018-09-30T14:27:57.691Z,16.70
2018-09-30T14:30:26.313Z,16.70
2018-09-30T14:32:54.825Z,16.70
2018-09-30T14:35:23.381Z,16.70
2018-09-30T14:37:51.876Z,16.70
2018-09-30T14:40:20.380Z,16.70
2018-09-30T14:42:48.946Z,16.70
2018-09-30T14:45:17.462Z,16.70
2018-09-30T14:47:46.057Z,16.70
2018-09-30T14:50:14.561Z,16.70
2018-09-30T14:52:43.356Z,16.70
2018-09-30T14:55:12.149Z,16.80
2018-09-30T14:57:41.977Z,16.80
2018-09-30T15:00:10.700Z,16.80
2018-09-30T15:02:39.432Z,16.70
2018-09-30T15:05:09.772Z,16.70
2018-09-30T15:07:38.886Z,16.70
2018-09-30T15:10:08.048Z,16.60
2018-09-30T15:12:37.681Z,16.70
2018-09-30T15:15:07.981Z,16.80
2018-09-30T15:17:36.846Z,16.70
2018-09-30T15:20:05.519Z,16.70
2018-09-30T15:22:34.138Z,16.60
2018-09-30T15:25:02.777Z,16.60
2018-09-30T15:27:31.384Z,16.60
2018-09-30T15:30:00.289Z,16.60
2018-09-30T15:32:30.032Z,16.60
2018-09-30T15:34:58.819Z,16.50
2018-09-30T15:37:28.054Z,16.50
2018-09-30T15:39:56.839Z,16.50
2018-09-30T15:42:25.478Z,16.50
2018-09-30T15:44:54.106Z,16.40
2018-09-30T15:47:22.689Z,16.40
2018-09-30T15:49:51.216Z,16.40
2018-09-30T15:52:19.745Z,16.40
2018-09-30T15:54:48.350Z,16.40
2018-09-30T15:57:16.850Z,16.30
2018-09-30T15:59:45.462Z,16.30
2018-09-30T16:02:13.943Z,16.30
2018-09-30T16:04:43.044Z,16.20
2018-09-30T16:07:11.526Z,16.20
2018-09-30T16:09:40.176Z,16.20
2018-09-30T16:12:08.727Z,16.20
2018-09-30T16:14:37.257Z,16.10
2018-09-30T16:17:05.757Z,16.10
2018-09-30T16:19:34.372Z,16.00
2018-09-30T16:22:03.175Z,16.00
2018-09-30T16:24:31.945Z,16.00
2018-09-30T16:27:00.609Z,16.00
2018-09-30T16:29:29.747Z,16.00
2018-09-30T16:31:58.440Z,15.90
2018-09-30T16:34:27.480Z,15.90
2018-09-30T16:37:02.353Z,15.80
2018-09-30T16:39:31.360Z,15.90
2018-09-30T16:42:00.116Z,15.80
2018-09-30T16:44:29.025Z,15.70
2018-09-30T16:46:58.076Z,15.70
2018-09-30T16:49:26.606Z,15.50
2018-09-30T16:51:55.231Z,15.40
2018-09-30T16:54:23.801Z,15.30
2018-09-30T16:56:52.871Z,15.20
2018-09-30T16:59:21.793Z,15.10
2018-09-30T17:01:50.398Z,15.10
2018-09-30T17:04:18.973Z,15.00
2018-09-30T17:06:47.922Z,15.00
2018-09-30T17:09:16.451Z,14.90
2018-09-30T17:11:45.091Z,14.90
2018-09-30T17:14:13.926Z,14.80
2018-09-30T17:16:42.378Z,14.80
2018-09-30T17:19:11.939Z,14.70
2018-09-30T17:21:40.956Z,14.60
2018-09-30T17:24:10.207Z,14.50
2018-09-30T17:26:40.217Z,14.50
2018-09-30T17:29:09.646Z,14.30
2018-09-30T17:31:38.885Z,14.30
2018-09-30T17:34:08.016Z,14.20
2018-09-30T17:36:37.156Z,14.10
2018-09-30T17:39:07.985Z,14.10
2018-09-30T17:41:36.975Z,14.10
2018-09-30T17:44:07.809Z,14.00
2018-09-30T17:46:36.794Z,13.90
2018-09-30T17:49:05.683Z,13.90
2018-09-30T17:51:34.828Z,13.90
2018-09-30T17:54:03.785Z,13.90
2018-09-30T17:56:32.964Z,13.80
2018-09-30T17:59:01.480Z,13.70
2018-09-30T18:01:30.514Z,13.70
2018-09-30T18:03:59.161Z,13.60
2018-09-30T18:06:28.080Z,13.70
2018-09-30T18:08:56.629Z,13.60
2018-09-30T18:11:25.331Z,13.50
2018-09-30T18:13:54.534Z,13.40
2018-09-30T18:16:23.121Z,13.40
2018-09-30T18:18:52.073Z,13.40
2018-09-30T18:21:20.675Z,13.40
2018-09-30T18:23:49.295Z,13.30
2018-09-30T18:26:17.973Z,13.20
2018-09-30T18:28:46.474Z,13.10
2018-09-30T18:31:15.210Z,13.00
2018-09-30T18:33:43.662Z,12.90
2018-09-30T18:36:12.278Z,12.80
2018-09-30T18:38:40.807Z,12.80
2018-09-30T18:41:09.766Z,12.70
2018-09-30T18:43:39.636Z,12.70
2018-09-30T18:46:08.310Z,12.70
2018-09-30T18:48:37.216Z,12.70
2018-09-30T18:51:06.219Z,12.70
2018-09-30T18:53:35.065Z,12.70
2018-09-30T18:56:04.129Z,12.60
2018-09-30T18:58:33.072Z,12.70
2018-09-30T19:01:02.212Z,12.70
2018-09-30T19:03:31.367Z,12.60
2018-09-30T19:06:00.665Z,12.50
2018-09-30T19:08:29.660Z,12.50
2018-09-30T19:10:58.755Z,12.50
2018-09-30T19:13:27.500Z,12.50
2018-09-30T19:15:56.273Z,12.60
2018-09-30T19:18:25.137Z,12.50
2018-09-30T19:20:53.738Z,12.40
2018-09-30T19:23:22.251Z,12.50
2018-09-30T19:25:50.785Z,12.50
2018-09-30T19:28:19.389Z,12.70
2018-09-30T19:30:48.097Z,12.80
2018-09-30T19:33:16.715Z,12.80
2018-09-30T19:35:45.272Z,12.80
2018-09-30T19:38:13.779Z,12.70
2018-09-30T19:40:42.767Z,12.60
2018-09-30T19:43:11.769Z,12.40
2018-09-30T19:45:41.130Z,12.40
2018-09-30T19:48:10.235Z,12.40
2018-09-30T19:50:39.460Z,12.40
2018-09-30T19:53:08.430Z,12.40
2018-09-30T19:55:37.449Z,12.30
2018-09-30T19:58:06.011Z,12.30
2018-09-30T20:00:34.504Z,12.30
2018-09-30T20:03:03.149Z,12.50
2018-09-30T20:05:31.748Z,12.50
2018-09-30T20:08:00.382Z,12.50
2018-09-30T20:10:29.051Z,12.60
2018-09-30T20:12:57.710Z,12.70
2018-09-30T20:15:26.333Z,12.90
2018-09-30T20:17:55.138Z,12.90
2018-09-30T20:20:30.267Z,13.00
2018-09-30T20:22:59.226Z,13.00
2018-09-30T20:25:28.037Z,13.10
2018-09-30T20:27:57.409Z,13.10
2018-09-30T20:30:26.058Z,13.10
2018-09-30T20:32:54.646Z,13.10
2018-09-30T20:35:23.121Z,13.10
2018-09-30T20:37:51.747Z,13.10
2018-09-30T20:40:20.262Z,13.10
2018-09-30T20:42:48.805Z,13.00
2018-09-30T20:45:17.234Z,13.00
2018-09-30T20:47:45.777Z,13.00
2018-09-30T20:50:14.364Z,13.00
2018-09-30T20:52:42.883Z,13.00
2018-09-30T20:55:11.481Z,13.00
2018-09-30T20:57:40.086Z,13.00
2018-09-30T21:00:08.679Z,12.90
2018-09-30T21:02:37.393Z,12.90
2018-09-30T21:06:20.346Z,12.90
2018-09-30T21:08:48.782Z,12.90
2018-09-30T21:11:17.515Z,12.90
2018-09-30T21:13:46.081Z,12.90
2018-09-30T21:16:15.090Z,12.90
2018-09-30T21:18:46.064Z,12.90
2018-09-30T21:21:14.957Z,12.90
2018-09-30T21:23:43.636Z,12.80
2018-09-30T21:26:12.113Z,12.80
2018-09-30T21:28:40.614Z,12.80
2018-09-30T21:31:09.177Z,12.80
2018-09-30T21:33:37.792Z,12.80
2018-09-30T21:36:12.729Z,12.80
2018-09-30T21:38:41.285Z,12.70
2018-09-30T21:41:09.788Z,12.70
2018-09-30T21:43:38.253Z,12.70
2018-09-30T21:46:06.869Z,12.70
2018-09-30T21:48:35.441Z,12.70
2018-09-30T21:51:03.998Z,12.60
2018-09-30T21:53:32.586Z,12.60
2018-09-30T21:56:01.170Z,12.60
2018-09-30T21:58:29.813Z,12.60
2018-09-30T22:01:00.107Z,12.60
2018-09-30T22:03:28.994Z,12.60
2018-09-30T22:05:58.052Z,12.60
2018-09-30T22:08:26.642Z,12.60
2018-09-30T22:10:55.236Z,12.60
2018-09-30T22:13:23.945Z,12.60
2018-09-30T22:15:52.583Z,12.50
2018-09-30T22:18:21.173Z,12.50
2018-09-30T22:20:49.741Z,12.50
2018-09-30T22:23:18.207Z,12.50
2018-09-30T22:25:46.667Z,12.50
2018-09-30T22:28:15.146Z,12.50
2018-09-30T22:30:43.639Z,12.40
2018-09-30T22:33:12.105Z,12.50
2018-09-30T22:35:40.538Z,12.50
2018-09-30T22:38:09.089Z,12.40
2018-09-30T22:40:37.585Z,12.40
2018-09-30T22:43:06.097Z,12.30
2018-09-30T22:45:34.592Z,12.30
2018-09-30T22:48:03.148Z,12.30
2018-09-30T22:50:31.772Z,12.30
2018-09-30T22:53:00.361Z,12.30
2018-09-30T22:55:28.947Z,12.30
2018-09-30T22:57:57.623Z,12.30
2018-09-30T23:00:26.153Z,12.20
2018-09-30T23:02:54.708Z,12.20
2018-09-30T23:05:23.173Z,12.20
2018-09-30T23:07:51.892Z,12.20
2018-09-30T23:10:20.386Z,12.20
2018-09-30T23:12:48.925Z,12.10
2018-09-30T23:15:17.445Z,12.20
2018-09-30T23:17:46.028Z,12.10
2018-09-30T23:20:16.983Z,12.10
2018-09-30T23:22:45.926Z,12.00
2018-09-30T23:25:14.542Z,12.00
2018-09-30T23:27:43.473Z,12.00
2018-09-30T23:30:12.184Z,12.00
2018-09-30T23:32:40.724Z,12.10
2018-09-30T23:35:09.201Z,12.10
2018-09-30T23:37:37.633Z,12.20
2018-09-30T23:40:06.728Z,12.10
2018-09-30T23:42:35.663Z,12.20
2018-09-30T23:45:04.316Z,12.10
2018-09-30T23:47:32.848Z,12.10
2018-09-30T23:50:01.341Z,12.10
2018-09-30T23:52:30.121Z,12.10
2018-09-30T23:54:58.752Z,12.10
2018-09-30T23:57:27.647Z,12.10
2018-09-30T23:59:56.600Z,12.10
